Aviation Digital Data Service (ADDS)

Output produced by METARs form (0345 UTC 21 October 2014)
found at http://aviationweather.gov/adds/metars/
 
KPHL 202335Z 2100/2206 18005KT P6SM BKN150 
     FM210400 24003KT P6SM SCT040 OVC080 
     FM211500 19006KT P6SM BKN040 
     FM212100 32004KT P6SM SCT040 BKN100